Time;durP1;ratioP1;P1;durP2;ratioP2;P2;SDS_P1;SDS_P2;PMS_P1;PMS_P2;Temp;Humidity;BMP_temperature;BMP_pressure;BME280_temperature;BME280_humidity;BME280_pressure;Samples;Min_cycle;Max_cycle;Signal;HPM_P1;HPM_P2
2023/09/15 00:01:18;;;;;;;0.40;0.40;;;10.40;99.90;;;;;;5106270;28;20051;-73
2023/09/15 00:03:44;;;;;;;0.50;0.50;;;10.40;99.90;;;;;;5105566;28;20564;-73
2023/09/15 00:06:10;;;;;;;0.40;0.40;;;10.40;99.90;;;;;;5104780;28;20048;-73
2023/09/15 00:08:35;;;;;;;0.50;0.50;;;10.40;99.90;;;;;;5105488;28;20048;-73
2023/09/15 00:11:01;;;;;;;0.40;0.40;;;10.30;99.90;;;;;;5105313;28;20600;-73
2023/09/15 00:13:27;;;;;;;0.50;0.50;;;10.40;99.90;;;;;;5107191;28;20047;-73
2023/09/15 00:15:52;;;;;;;0.40;0.40;;;10.30;99.90;;;;;;5102776;28;20035;-73
2023/09/15 00:18:18;;;;;;;0.50;0.50;;;10.30;99.90;;;;;;5104711;28;20465;-73
2023/09/15 00:20:44;;;;;;;0.40;0.40;;;10.30;99.90;;;;;;5104339;28;20156;-73
2023/09/15 00:23:10;;;;;;;;;;;10.30;99.90;;;;;;5107895;28;20047;-73
2023/09/15 00:25:36;;;;;;;0.40;0.40;;;10.30;99.90;;;;;;5102589;28;19927;-73
2023/09/15 00:28:03;;;;;;;0.40;0.40;;;10.30;99.90;;;;;;5106119;28;20450;-73
2023/09/15 00:30:29;;;;;;;0.40;0.40;;;10.20;99.90;;;;;;5101474;28;20043;-72
2023/09/15 00:32:55;;;;;;;0.40;0.40;;;10.20;99.90;;;;;;5105375;28;20051;-73
2023/09/15 00:35:23;;;;;;;0.40;0.40;;;10.20;99.90;;;;;;5103171;27;20055;-73
2023/09/15 00:37:51;;;;;;;0.40;0.40;;;10.20;99.90;;;;;;5104638;27;20047;-72
2023/09/15 00:40:18;;;;;;;0.35;0.35;;;10.10;99.90;;;;;;5104980;28;20047;-73
2023/09/15 00:42:45;;;;;;;0.30;0.30;;;10.10;99.90;;;;;;5101856;28;20057;-72
2023/09/15 00:45:14;;;;;;;0.50;0.50;;;10.10;99.90;;;;;;5106045;28;20148;-73
2023/09/15 00:47:46;;;;;;;0.45;0.45;;;10.00;99.90;;;;;;5101943;28;21814;-73
2023/09/15 00:50:16;;;;;;;0.40;0.40;;;10.10;99.90;;;;;;5101528;28;20076;-73
2023/09/15 00:52:51;;;;;;;0.40;0.40;;;10.00;99.90;;;;;;5100177;28;20044;-73
2023/09/15 00:55:20;;;;;;;0.40;0.40;;;10.00;99.90;;;;;;5102813;28;20111;-73
2023/09/15 00:57:47;;;;;;;0.40;0.40;;;10.00;99.90;;;;;;5101880;28;20052;-73
2023/09/15 01:00:14;;;;;;;0.40;0.40;;;10.00;99.90;;;;;;5106169;28;20047;-73
2023/09/15 01:02:42;;;;;;;0.65;0.60;;;10.00;99.90;;;;;;5101582;28;20131;-73
2023/09/15 01:05:19;;;;;;;0.98;0.55;;;10.00;99.90;;;;;;5105358;28;20051;-72
2023/09/15 01:07:47;;;;;;;0.40;0.40;;;10.00;99.90;;;;;;5100544;28;20040;-73
2023/09/15 01:10:14;;;;;;;0.40;0.40;;;9.90;99.90;;;;;;5106268;28;20405;-73
2023/09/15 01:12:41;;;;;;;0.32;0.32;;;9.90;99.90;;;;;;5103353;28;20052;-74
2023/09/15 01:15:07;;;;;;;0.40;0.40;;;9.90;99.90;;;;;;5103407;28;20671;-73
2023/09/15 01:18:00;;;;;;;0.68;0.68;;;9.80;99.90;;;;;;5102990;28;20047;-73
2023/09/15 01:20:53;;;;;;;0.40;0.40;;;9.90;99.90;;;;;;5103925;28;20048;-73
2023/09/15 01:23:37;;;;;;;0.40;0.40;;;10.50;99.90;;;;;;5104417;28;20043;-73
2023/09/15 01:26:15;;;;;;;0.50;0.50;;;9.80;99.90;;;;;;5107256;28;20052;-72
2023/09/15 01:28:44;;;;;;;0.57;0.57;;;9.80;99.90;;;;;;5099992;28;20046;-73
2023/09/15 01:31:11;;;;;;;0.50;0.50;;;9.80;99.90;;;;;;5083868;28;20081;-73
2023/09/15 01:33:38;;;;;;;0.50;0.50;;;9.80;99.90;;;;;;5101191;28;20150;-73
2023/09/15 01:36:04;;;;;;;0.65;0.65;;;9.70;99.90;;;;;;5105761;28;20051;-73
2023/09/15 01:38:31;;;;;;;0.40;0.40;;;9.70;99.90;;;;;;5103067;28;20111;-73
2023/09/15 01:40:57;;;;;;;0.55;0.55;;;9.70;99.90;;;;;;5108330;28;20047;-73
2023/09/15 01:43:22;;;;;;;0.40;0.40;;;9.60;99.90;;;;;;5109540;28;20044;-73
2023/09/15 01:45:48;;;;;;;0.55;0.55;;;9.60;99.90;;;;;;5109220;28;20118;-74
2023/09/15 01:48:15;;;;;;;0.50;0.50;;;9.60;99.90;;;;;;5108731;28;20455;-73
2023/09/15 01:50:42;;;;;;;0.40;0.40;;;9.50;99.90;;;;;;5108302;28;20426;-73
2023/09/15 01:53:08;;;;;;;0.38;0.38;;;9.60;99.90;;;;;;5109409;28;20120;-72
2023/09/15 01:55:35;;;;;;;0.40;0.40;;;9.50;99.90;;;;;;5107806;28;20482;-73
2023/09/15 01:58:01;;;;;;;0.45;0.45;;;9.50;99.90;;;;;;5108638;28;20043;-73
2023/09/15 02:00:37;;;;;;;0.50;0.50;;;9.50;99.90;;;;;;5108028;28;20054;-73
2023/09/15 02:03:04;;;;;;;0.47;0.47;;;9.40;99.90;;;;;;5109354;28;20121;-73
2023/09/15 02:05:30;;;;;;;0.43;0.43;;;9.40;99.90;;;;;;5101431;28;20075;-73
2023/09/15 02:07:56;;;;;;;0.40;0.40;;;9.30;99.90;;;;;;5109142;28;20086;-73
2023/09/15 02:10:22;;;;;;;0.32;0.32;;;9.30;99.90;;;;;;5107449;28;20169;-73
2023/09/15 02:12:48;;;;;;;0.40;0.40;;;9.30;99.90;;;;;;5106463;28;20044;-73
2023/09/15 02:15:14;;;;;;;0.45;0.45;;;9.30;99.90;;;;;;5109161;28;20048;-73
2023/09/15 02:17:40;;;;;;;0.60;0.60;;;9.30;99.90;;;;;;5109670;28;20046;-73
2023/09/15 02:20:11;;;;;;;0.50;0.50;;;9.30;99.90;;;;;;5107975;28;20067;-73
2023/09/15 02:22:40;;;;;;;0.50;0.50;;;9.20;99.90;;;;;;5106468;28;20406;-73
2023/09/15 02:25:05;;;;;;;0.50;0.50;;;9.20;99.90;;;;;;5108857;28;20039;-73
2023/09/15 02:27:31;;;;;;;0.50;0.50;;;9.20;99.90;;;;;;5109399;28;20051;-73
2023/09/15 02:29:57;;;;;;;0.47;0.47;;;9.20;99.90;;;;;;5111101;28;20039;-73
2023/09/15 02:32:22;;;;;;;0.52;0.52;;;9.20;99.90;;;;;;5110237;28;20039;-73
2023/09/15 02:34:48;;;;;;;0.50;0.50;;;9.20;99.90;;;;;;5112309;28;20048;-73
2023/09/15 02:37:15;;;;;;;0.55;0.55;;;9.10;99.90;;;;;;5113270;28;20092;-72
2023/09/15 02:39:40;;;;;;;0.45;0.45;;;9.10;99.90;;;;;;5112874;28;20497;-72
2023/09/15 02:42:06;;;;;;;0.50;0.50;;;9.10;99.90;;;;;;5103215;28;20051;-73
2023/09/15 02:44:32;;;;;;;0.40;0.40;;;9.10;99.90;;;;;;5111054;28;20051;-73
2023/09/15 02:46:58;;;;;;;0.47;0.47;;;9.00;99.90;;;;;;5112575;28;20100;-73
2023/09/15 02:49:24;;;;;;;0.40;0.40;;;9.00;99.90;;;;;;5113388;28;20074;-73
2023/09/15 02:51:49;;;;;;;0.50;0.50;;;9.00;99.90;;;;;;5111981;28;20040;-74
2023/09/15 02:54:15;;;;;;;0.40;0.40;;;9.00;99.90;;;;;;5111824;28;20502;-74
2023/09/15 02:56:40;;;;;;;0.50;0.50;;;9.00;99.90;;;;;;5111151;28;20058;-73
2023/09/15 02:59:06;;;;;;;0.40;0.40;;;9.00;99.90;;;;;;5112003;28;20040;-73
2023/09/15 03:01:32;;;;;;;0.60;0.60;;;9.00;99.90;;;;;;5112537;28;20079;-73
2023/09/15 03:03:57;;;;;;;0.50;0.50;;;9.00;99.90;;;;;;5105377;28;20091;-73
2023/09/15 03:06:23;;;;;;;0.40;0.40;;;9.00;99.90;;;;;;5112068;28;20039;-73
2023/09/15 03:08:49;;;;;;;0.50;0.50;;;9.00;99.90;;;;;;5112953;28;20051;-73
2023/09/15 03:11:18;;;;;;;0.50;0.50;;;8.90;99.90;;;;;;5110820;28;20047;-73
2023/09/15 03:13:43;;;;;;;0.40;0.40;;;8.90;99.90;;;;;;5108534;28;20051;-73
2023/09/15 03:16:11;;;;;;;0.93;0.93;;;8.90;99.90;;;;;;5108626;28;20050;-73
2023/09/15 03:18:37;;;;;;;0.43;0.43;;;8.90;99.90;;;;;;5112650;28;20052;-72
2023/09/15 03:21:04;;;;;;;0.68;0.68;;;8.90;99.90;;;;;;5111275;28;20060;-73
2023/09/15 03:23:30;;;;;;;0.50;0.50;;;8.80;99.90;;;;;;5111456;28;20052;-73
2023/09/15 03:26:02;;;;;;;0.52;0.52;;;8.80;99.90;;;;;;5102069;28;20085;-73
2023/09/15 03:28:33;;;;;;;0.50;0.50;;;8.80;99.90;;;;;;5109694;28;20437;-73
2023/09/15 03:31:00;;;;;;;0.47;0.47;;;8.70;99.90;;;;;;5111425;28;20048;-73
2023/09/15 03:33:25;;;;;;;0.50;0.50;;;8.70;99.90;;;;;;5111581;28;20503;-75
2023/09/15 03:35:51;;;;;;;0.40;0.40;;;8.70;99.90;;;;;;5109460;28;20035;-73
2023/09/15 03:38:17;;;;;;;0.60;0.60;;;8.60;99.90;;;;;;5112375;28;20093;-74
2023/09/15 03:40:43;;;;;;;0.43;0.43;;;8.60;99.90;;;;;;5110449;28;20043;-74
2023/09/15 03:43:08;;;;;;;0.50;0.50;;;8.60;99.90;;;;;;5112055;28;20082;-74
2023/09/15 03:45:34;;;;;;;0.43;0.43;;;8.60;99.90;;;;;;5108567;28;20079;-74
2023/09/15 03:48:00;;;;;;;0.45;0.45;;;8.60;99.90;;;;;;5110547;28;20738;-74
2023/09/15 03:50:26;;;;;;;0.45;0.45;;;8.50;99.90;;;;;;5112081;28;20104;-74
2023/09/15 03:52:52;;;;;;;;;;;8.50;99.90;;;;;;5112643;28;20050;-74
2023/09/15 03:55:19;;;;;;;0.50;0.50;;;8.50;99.90;;;;;;5110284;28;19928;-74
2023/09/15 03:57:44;;;;;;;0.40;0.40;;;8.40;99.90;;;;;;5111072;28;20079;-73
2023/09/15 04:00:17;;;;;;;0.30;0.30;;;8.40;99.90;;;;;;5111288;28;20090;-74
2023/09/15 04:02:43;;;;;;;0.57;0.57;;;8.40;99.90;;;;;;5112192;28;20091;-74
2023/09/15 04:05:10;;;;;;;;;;;8.40;99.90;;;;;;5110766;28;20123;-74
2023/09/15 04:07:37;;;;;;;0.57;0.57;;;8.40;99.90;;;;;;5105539;28;19924;-74
2023/09/15 04:10:05;;;;;;;0.50;0.50;;;8.40;99.90;;;;;;5109788;28;20795;-74
2023/09/15 04:12:32;;;;;;;0.55;0.55;;;8.40;99.90;;;;;;5111394;28;20051;-73
2023/09/15 04:14:58;;;;;;;0.50;0.50;;;8.40;99.90;;;;;;5109950;28;20056;-74
2023/09/15 04:17:24;;;;;;;0.50;0.50;;;8.30;99.90;;;;;;5109671;28;20039;-73
2023/09/15 04:19:50;;;;;;;0.45;0.45;;;8.30;99.90;;;;;;5111293;28;20540;-74
2023/09/15 04:22:16;;;;;;;0.52;0.52;;;8.30;99.90;;;;;;5109845;28;20055;-74
2023/09/15 04:24:41;;;;;;;0.47;0.47;;;8.30;99.90;;;;;;5110005;28;20059;-73
2023/09/15 04:27:07;;;;;;;0.50;0.50;;;8.30;99.90;;;;;;5103686;28;20044;-74
2023/09/15 04:29:32;;;;;;;0.50;0.50;;;8.30;99.90;;;;;;5109534;28;20048;-73
2023/09/15 04:31:58;;;;;;;0.60;0.60;;;8.30;99.90;;;;;;5110457;28;20047;-74
2023/09/15 04:34:25;;;;;;;0.47;0.47;;;8.30;99.90;;;;;;5111114;28;20040;-73
2023/09/15 04:36:50;;;;;;;0.40;0.40;;;8.20;99.90;;;;;;5110465;28;20469;-74
2023/09/15 04:39:17;;;;;;;0.40;0.40;;;8.30;99.90;;;;;;5107463;28;20055;-74
2023/09/15 04:41:43;;;;;;;0.43;0.43;;;8.20;99.90;;;;;;5109639;28;20074;-74
2023/09/15 04:44:10;;;;;;;0.50;0.50;;;8.20;99.90;;;;;;5110611;28;20040;-74
2023/09/15 04:46:35;;;;;;;0.50;0.50;;;8.20;99.90;;;;;;5109726;28;20054;-73
2023/09/15 04:49:03;;;;;;;0.50;0.50;;;8.20;99.90;;;;;;5107998;28;20044;-74
2023/09/15 04:51:28;;;;;;;0.60;0.60;;;8.20;99.90;;;;;;5109489;28;20043;-74
2023/09/15 04:53:54;;;;;;;0.55;0.55;;;8.20;99.90;;;;;;5108073;28;20059;-74
2023/09/15 04:56:20;;;;;;;0.57;0.57;;;8.20;99.90;;;;;;5108447;28;20051;-74
2023/09/15 04:58:46;;;;;;;0.63;0.63;;;8.20;99.90;;;;;;5110308;28;20644;-74
2023/09/15 05:01:16;;;;;;;0.40;0.40;;;8.20;99.90;;;;;;5107947;28;20111;-73
2023/09/15 05:03:44;;;;;;;0.55;0.55;;;8.10;99.90;;;;;;5107300;28;20047;-73
2023/09/15 05:06:09;;;;;;;0.40;0.40;;;8.20;99.90;;;;;;5108873;28;20047;-73
2023/09/15 05:08:35;;;;;;;0.60;0.60;;;8.10;99.90;;;;;;5109464;28;20371;-73
2023/09/15 05:11:01;;;;;;;0.52;0.52;;;8.10;99.90;;;;;;5109313;28;20051;-73
2023/09/15 05:13:26;;;;;;;0.40;0.40;;;8.10;99.90;;;;;;5108563;28;20057;-74
2023/09/15 05:15:52;;;;;;;0.40;0.40;;;8.10;99.90;;;;;;5108618;28;20521;-73
2023/09/15 05:18:18;;;;;;;0.40;0.40;;;8.10;99.90;;;;;;5108240;28;20051;-74
2023/09/15 05:20:44;;;;;;;0.55;0.55;;;8.10;99.90;;;;;;5106416;28;20176;-73
2023/09/15 05:23:11;;;;;;;0.60;0.60;;;8.20;99.90;;;;;;5108561;28;20051;-72
2023/09/15 05:25:36;;;;;;;0.40;0.40;;;8.30;99.90;;;;;;5110316;28;20054;-73
2023/09/15 05:28:02;;;;;;;0.60;0.60;;;8.30;99.90;;;;;;5109166;28;20568;-73
2023/09/15 05:30:31;;;;;;;0.60;0.60;;;8.30;99.90;;;;;;5108678;28;20097;-73
2023/09/15 05:32:57;;;;;;;0.60;0.60;;;8.20;99.90;;;;;;5108946;28;20039;-73
2023/09/15 05:35:22;;;;;;;0.50;0.50;;;8.30;99.90;;;;;;5109659;28;20496;-73
2023/09/15 05:37:49;;;;;;;0.73;0.73;;;8.30;99.90;;;;;;5109903;28;20044;-73
2023/09/15 05:40:14;;;;;;;;;;;8.40;99.90;;;;;;5109609;28;20131;-73
2023/09/15 05:42:40;;;;;;;0.73;0.73;;;8.40;99.90;;;;;;5106778;28;20014;-73
2023/09/15 05:45:06;;;;;;;0.40;0.40;;;8.40;99.90;;;;;;5109982;28;20051;-73
2023/09/15 05:47:33;;;;;;;0.40;0.40;;;8.40;99.90;;;;;;5107594;28;20039;-73
2023/09/15 05:50:04;;;;;;;0.63;0.63;;;8.50;99.90;;;;;;5109679;28;20063;-73
2023/09/15 05:52:30;;;;;;;0.40;0.40;;;8.60;99.90;;;;;;5107328;28;20074;-73
2023/09/15 05:54:55;;;;;;;;;;;8.60;99.90;;;;;;5109143;28;20051;-73
2023/09/15 05:57:22;;;;;;;0.50;0.50;;;8.70;99.90;;;;;;5109290;28;19923;-74
2023/09/15 05:59:48;;;;;;;0.50;0.50;;;8.80;99.90;;;;;;5110356;28;20806;-74
2023/09/15 06:02:14;;;;;;;0.60;0.60;;;8.90;99.90;;;;;;5103576;28;20051;-74
2023/09/15 06:04:42;;;;;;;0.60;0.60;;;9.00;99.90;;;;;;5106356;28;20411;-74
2023/09/15 06:07:08;;;;;;;0.40;0.40;;;9.00;99.90;;;;;;5108630;28;20132;-74
2023/09/15 06:09:34;;;;;;;0.50;0.50;;;9.00;99.90;;;;;;5109990;28;20047;-74
2023/09/15 06:11:59;;;;;;;0.50;0.50;;;9.10;99.90;;;;;;5110273;28;20082;-73
2023/09/15 06:14:25;;;;;;;0.40;0.40;;;9.20;99.90;;;;;;5107959;28;20088;-73
2023/09/15 06:16:51;;;;;;;0.43;0.43;;;9.30;99.90;;;;;;5111493;28;20036;-74
2023/09/15 06:19:17;;;;;;;1.20;1.17;;;9.40;99.90;;;;;;5113461;28;20580;-73
2023/09/15 06:21:42;;;;;;;0.50;0.50;;;9.40;99.90;;;;;;5113750;28;20100;-73
2023/09/15 06:24:08;;;;;;;0.50;0.50;;;9.50;99.90;;;;;;5111500;28;20146;-73
2023/09/15 06:26:34;;;;;;;0.50;0.50;;;9.60;99.90;;;;;;5110904;28;20066;-73
2023/09/15 06:28:59;;;;;;;0.40;0.40;;;9.70;99.90;;;;;;5111364;28;20044;-74
2023/09/15 06:31:25;;;;;;;1.38;0.77;;;9.80;99.90;;;;;;5112445;28;20047;-74
2023/09/15 06:33:51;;;;;;;0.40;0.40;;;9.90;99.90;;;;;;5110553;27;20521;-74
2023/09/15 06:36:16;;;;;;;0.50;0.50;;;10.10;99.90;;;;;;5108119;28;20150;-74
2023/09/15 06:38:42;;;;;;;0.50;0.50;;;10.20;99.90;;;;;;5109534;28;20043;-74
2023/09/15 06:41:08;;;;;;;0.30;0.30;;;10.30;99.90;;;;;;5108661;28;20077;-74
2023/09/15 06:43:34;;;;;;;0.50;0.50;;;10.40;99.90;;;;;;5106303;28;20096;-74
2023/09/15 06:46:00;;;;;;;0.60;0.60;;;10.50;99.90;;;;;;5108841;28;20036;-73
2023/09/15 06:48:25;;;;;;;0.70;0.70;;;10.60;99.90;;;;;;5107709;28;20069;-74
2023/09/15 06:50:51;;;;;;;0.40;0.40;;;10.80;99.90;;;;;;5107491;28;20046;-74
2023/09/15 06:53:17;;;;;;;0.40;0.40;;;11.00;99.90;;;;;;5098984;28;20442;-74
2023/09/15 06:55:43;;;;;;;0.93;0.68;;;11.00;99.90;;;;;;5097182;28;20090;-74
2023/09/15 06:58:08;;;;;;;0.50;0.50;;;11.10;99.90;;;;;;5097956;28;20039;-74
2023/09/15 07:00:34;;;;;;;0.50;0.50;;;11.40;99.90;;;;;;5099213;28;20116;-74
2023/09/15 07:03:00;;;;;;;0.30;0.30;;;11.50;99.90;;;;;;5108738;28;20335;-73
2023/09/15 07:05:25;;;;;;;0.30;0.30;;;11.60;99.90;;;;;;5105947;28;20047;-74
2023/09/15 07:07:51;;;;;;;0.47;0.47;;;11.70;99.90;;;;;;5107509;28;20039;-73
2023/09/15 07:10:17;;;;;;;0.50;0.50;;;11.80;99.90;;;;;;5114298;27;20044;-74
2023/09/15 07:12:42;;;;;;;0.38;0.38;;;11.90;99.90;;;;;;5110793;28;20512;-74
2023/09/15 07:15:08;;;;;;;0.43;0.43;;;12.00;99.90;;;;;;5103179;28;20088;-74
2023/09/15 07:17:34;;;;;;;0.32;0.32;;;12.10;99.90;;;;;;5107807;28;20071;-74
2023/09/15 07:20:00;;;;;;;0.40;0.40;;;12.20;99.90;;;;;;5107333;28;20075;-75
2023/09/15 07:22:27;;;;;;;0.30;0.30;;;12.30;99.90;;;;;;5104121;28;20048;-73
2023/09/15 07:24:53;;;;;;;0.60;0.60;;;12.40;99.90;;;;;;5105612;28;20075;-74
2023/09/15 07:27:20;;;;;;;0.32;0.32;;;12.50;99.90;;;;;;5091922;28;20212;-73
2023/09/15 07:29:45;;;;;;;0.50;0.50;;;12.60;99.90;;;;;;5109671;28;20043;-73
2023/09/15 07:32:11;;;;;;;0.40;0.40;;;12.70;99.90;;;;;;5108573;28;20802;-73
2023/09/15 07:34:37;;;;;;;0.30;0.30;;;12.80;99.90;;;;;;5110418;28;20066;-74
2023/09/15 07:37:05;;;;;;;0.40;0.40;;;12.90;99.90;;;;;;5104544;28;20362;-74
2023/09/15 07:39:31;;;;;;;0.30;0.30;;;13.70;99.90;;;;;;5107981;28;20112;-74
2023/09/15 07:41:57;;;;;;;0.30;0.30;;;13.60;99.90;;;;;;5107780;28;20053;-73
2023/09/15 07:44:23;;;;;;;0.60;0.60;;;13.20;99.90;;;;;;5102709;28;20507;-74
2023/09/15 07:46:49;;;;;;;0.40;0.40;;;13.30;99.90;;;;;;5108985;28;20116;-74
2023/09/15 07:49:14;;;;;;;0.40;0.40;;;13.40;99.90;;;;;;5108702;28;20124;-74
2023/09/15 07:51:40;;;;;;;0.20;0.20;;;13.40;99.90;;;;;;5110284;28;20649;-73
2023/09/15 07:54:09;;;;;;;0.32;0.32;;;13.50;99.90;;;;;;5104724;28;20048;-74
2023/09/15 07:56:36;;;;;;;0.50;0.50;;;13.50;99.90;;;;;;5107200;28;20066;-74
2023/09/15 07:59:03;;;;;;;0.40;0.40;;;13.70;99.90;;;;;;5108353;28;20080;-74
2023/09/15 08:01:29;;;;;;;0.28;0.28;;;13.80;99.90;;;;;;5109364;28;20051;-74
2023/09/15 08:03:54;;;;;;;0.22;0.22;;;13.90;99.90;;;;;;5105097;28;20044;-74
2023/09/15 08:06:20;;;;;;;0.40;0.40;;;14.00;99.90;;;;;;5109651;28;20039;-74
2023/09/15 08:08:46;;;;;;;0.20;0.20;;;14.70;99.90;;;;;;5105908;28;20051;-74
2023/09/15 08:11:11;;;;;;;;;;;14.20;99.90;;;;;;5102853;28;20085;-74
2023/09/15 08:13:37;;;;;;;0.30;0.30;;;14.30;99.90;;;;;;5106825;28;19932;-74
2023/09/15 08:16:03;;;;;;;0.35;0.35;;;14.40;99.90;;;;;;5107685;28;20066;-74
2023/09/15 08:18:28;;;;;;;;;;;14.50;99.90;;;;;;5108292;28;20040;-75
2023/09/15 08:20:54;;;;;;;0.30;0.30;;;14.60;99.90;;;;;;5110383;28;19924;-74
2023/09/15 08:23:20;;;;;;;0.98;0.98;;;14.70;99.90;;;;;;5103543;28;20057;-74
2023/09/15 08:25:45;;;;;;;0.30;0.30;;;14.90;99.90;;;;;;5105437;28;20062;-74
2023/09/15 08:28:11;;;;;;;2.28;0.40;;;15.00;99.90;;;;;;5108817;28;20043;-75
2023/09/15 08:30:37;;;;;;;0.20;0.20;;;15.00;99.90;;;;;;5109022;28;20055;-74
2023/09/15 08:33:03;;;;;;;0.50;0.50;;;15.20;99.90;;;;;;5105036;28;20382;-75
2023/09/15 08:35:29;;;;;;;;;;;15.30;99.90;;;;;;5109021;28;20058;-75
2023/09/15 08:37:55;;;;;;;0.30;0.30;;;15.30;99.90;;;;;;5108696;28;19920;-74
2023/09/15 08:40:21;;;;;;;0.32;0.32;;;15.40;99.90;;;;;;5108690;28;20058;-74
2023/09/15 08:42:47;;;;;;;0.50;0.50;;;15.50;99.90;;;;;;5105772;28;20815;-74
2023/09/15 08:45:14;;;;;;;0.30;0.30;;;15.60;99.90;;;;;;5109142;28;20439;-74
2023/09/15 08:47:45;;;;;;;0.30;0.30;;;15.60;99.90;;;;;;5103316;28;20509;-74
2023/09/15 08:50:11;;;;;;;0.30;0.30;;;15.70;99.90;;;;;;5108984;28;20121;-74
2023/09/15 08:52:38;;;;;;;0.22;0.22;;;15.80;99.90;;;;;;5109176;28;20576;-74
2023/09/15 08:55:04;;;;;;;0.57;0.43;;;15.90;99.90;;;;;;5104279;28;20098;-74
2023/09/15 08:57:31;;;;;;;1.02;1.02;;;16.00;99.90;;;;;;5105270;28;20044;-75
2023/09/15 09:00:00;;;;;;;0.20;0.20;;;16.00;99.90;;;;;;5109161;28;20070;-74
2023/09/15 09:02:26;;;;;;;0.30;0.30;;;16.10;99.90;;;;;;5101292;28;20048;-75
2023/09/15 09:04:52;;;;;;;;;;;16.20;99.90;;;;;;5109065;28;20078;-74
2023/09/15 09:07:21;;;;;;;0.50;0.50;;;16.30;99.90;;;;;;5109424;28;19981;-75
2023/09/15 09:09:48;;;;;;;0.30;0.30;;;16.30;99.90;;;;;;5094134;28;20080;-74
2023/09/15 09:12:15;;;;;;;0.73;0.73;;;16.40;99.90;;;;;;5104920;28;20044;-75
2023/09/15 09:14:41;;;;;;;0.60;0.60;;;16.50;99.90;;;;;;5099350;28;20051;-75
2023/09/15 09:17:08;;;;;;;0.30;0.30;;;16.60;99.90;;;;;;5102465;28;20050;-74
2023/09/15 09:19:46;;;;;;;0.35;0.35;;;16.70;99.90;;;;;;5099820;28;20055;-75
2023/09/15 09:22:16;;;;;;;2.08;0.60;;;16.70;99.90;;;;;;5096541;28;20048;-74
2023/09/15 09:24:42;;;;;;;0.30;0.30;;;16.90;99.90;;;;;;5103427;28;20060;-75
2023/09/15 09:27:11;;;;;;;;;;;16.90;99.90;;;;;;5102518;28;20482;-74
2023/09/15 09:29:37;;;;;;;0.40;0.40;;;17.00;99.90;;;;;;5099593;28;19971;-74
2023/09/15 09:32:04;;;;;;;0.38;0.38;;;17.10;99.90;;;;;;5095536;28;20095;-74
2023/09/15 09:34:30;;;;;;;0.30;0.30;;;17.20;99.90;;;;;;5104867;28;20051;-74
2023/09/15 09:36:55;;;;;;;;;;;17.20;99.90;;;;;;5105818;28;20085;-75
2023/09/15 09:39:21;;;;;;;0.85;0.85;;;17.40;99.90;;;;;;5100572;28;20521;-74
2023/09/15 09:41:47;;;;;;;;;;;17.40;99.90;;;;;;5100618;28;20051;-74
2023/09/15 09:44:13;;;;;;;0.73;0.73;;;17.50;99.90;;;;;;5095007;28;20003;-75
2023/09/15 09:46:42;;;;;;;1.25;1.15;;;17.50;99.90;;;;;;5096479;28;20051;-75
2023/09/15 09:49:08;;;;;;;0.57;0.57;;;17.50;99.90;;;;;;5100604;28;20096;-75
2023/09/15 09:51:37;;;;;;;0.50;0.50;;;17.60;99.90;;;;;;5105010;28;20150;-74
2023/09/15 09:54:06;;;;;;;0.30;0.30;;;17.60;99.90;;;;;;5103637;28;20047;-74
2023/09/15 09:56:32;;;;;;;0.30;0.30;;;17.70;99.90;;;;;;5102899;28;20036;-75
2023/09/15 09:59:10;;;;;;;0.30;0.30;;;17.80;99.90;;;;;;5102323;28;20131;-74
2023/09/15 10:01:36;;;;;;;0.60;0.60;;;17.80;99.90;;;;;;5098542;28;20538;-74
2023/09/15 10:04:06;;;;;;;0.45;0.45;;;18.00;99.90;;;;;;5105550;28;20055;-74
2023/09/15 10:06:36;;;;;;;0.30;0.30;;;18.00;99.90;;;;;;5109045;28;20081;-75
2023/09/15 10:09:06;;;;;;;0.47;0.47;;;18.10;99.90;;;;;;5100249;28;20047;-75
2023/09/15 10:11:35;;;;;;;0.85;0.85;;;18.10;99.90;;;;;;5101865;28;20047;-74
2023/09/15 10:14:05;;;;;;;0.38;0.38;;;18.20;99.90;;;;;;5099496;28;20375;-75
2023/09/15 10:16:32;;;;;;;0.25;0.25;;;18.30;99.90;;;;;;5107902;28;20100;-75
2023/09/15 10:18:59;;;;;;;0.40;0.40;;;18.30;99.90;;;;;;5104476;28;20056;-75
2023/09/15 10:21:27;;;;;;;0.22;0.22;;;18.30;99.90;;;;;;5107453;28;20051;-74
2023/09/15 10:24:09;;;;;;;0.80;0.80;;;18.40;99.90;;;;;;5103849;28;20504;-75
2023/09/15 10:26:39;;;;;;;5.40;1.67;;;18.50;99.90;;;;;;5093927;28;20048;-75
2023/09/15 10:29:05;;;;;;;0.65;0.65;;;18.50;99.90;;;;;;5103732;28;20083;-74
2023/09/15 10:31:34;;;;;;;;;;;18.60;99.90;;;;;;5105783;28;20054;-74
2023/09/15 10:34:01;;;;;;;0.20;0.20;;;18.60;99.90;;;;;;5107329;28;20026;-74
2023/09/15 10:36:28;;;;;;;0.30;0.30;;;18.80;99.90;;;;;;5103284;28;20138;-74
2023/09/15 10:38:54;;;;;;;0.30;0.30;;;18.80;99.90;;;;;;5102676;28;20933;-74
2023/09/15 10:41:24;;;;;;;;;;;18.90;99.90;;;;;;5105796;28;20043;-74
2023/09/15 10:43:50;;;;;;;0.32;0.32;;;18.90;99.90;;;;;;5107749;28;20283;-74
2023/09/15 10:46:16;;;;;;;;;;;19.00;99.90;;;;;;5105820;28;20078;-74
2023/09/15 10:48:44;;;;;;;0.30;0.30;;;19.00;99.90;;;;;;5102129;28;19931;-74
2023/09/15 10:51:11;;;;;;;0.65;0.60;;;19.00;99.90;;;;;;5101066;28;20049;-74
2023/09/15 10:53:46;;;;;;;0.30;0.30;;;19.10;99.90;;;;;;5105655;28;20044;-74
2023/09/15 10:56:14;;;;;;;1.10;0.40;;;19.10;99.90;;;;;;5103724;28;20067;-73
2023/09/15 10:58:41;;;;;;;1.13;1.10;;;19.10;99.90;;;;;;5108364;28;20039;-74
2023/09/15 11:01:10;;;;;;;0.30;0.30;;;19.10;99.90;;;;;;5110835;28;20560;-74
2023/09/15 11:03:37;;;;;;;0.30;0.30;;;19.20;99.90;;;;;;5107725;28;20122;-74
2023/09/15 11:06:08;;;;;;;0.30;0.30;;;19.30;99.90;;;;;;5100133;28;20123;-75
2023/09/15 11:08:35;;;;;;;0.30;0.30;;;19.40;99.90;;;;;;5109832;28;20043;-74
2023/09/15 11:11:09;;;;;;;0.30;0.30;;;19.40;99.90;;;;;;5098330;28;20051;-74
2023/09/15 11:13:39;;;;;;;0.30;0.30;;;19.50;99.90;;;;;;5109720;28;20551;-74
2023/09/15 11:16:06;;;;;;;0.65;0.65;;;19.60;99.90;;;;;;5111489;28;20040;-75
2023/09/15 11:18:33;;;;;;;0.65;0.65;;;19.70;99.90;;;;;;5103053;28;20469;-74
2023/09/15 11:20:59;;;;;;;2.53;0.43;;;19.80;99.90;;;;;;5105448;28;20056;-75
2023/09/15 11:23:25;;;;;;;0.40;0.40;;;19.80;99.90;;;;;;5110247;28;20137;-75
2023/09/15 11:26:07;;;;;;;0.55;0.40;;;19.80;99.90;;;;;;5108641;28;20040;-75
2023/09/15 11:28:37;;;;;;;0.30;0.22;;;19.80;99.90;;;;;;5106282;28;20043;-75
2023/09/15 11:31:08;;;;;;;0.68;0.68;;;19.90;99.90;;;;;;5106640;28;20059;-75
2023/09/15 11:33:33;;;;;;;0.20;0.20;;;20.10;99.90;;;;;;5104429;28;20158;-75
2023/09/15 11:36:00;;;;;;;0.93;0.93;;;20.10;99.90;;;;;;5101930;28;20780;-75
2023/09/15 11:38:27;;;;;;;0.93;0.93;;;20.10;99.90;;;;;;5108196;28;20047;-75
2023/09/15 11:40:53;;;;;;;0.22;0.22;;;20.20;99.90;;;;;;5108650;28;20055;-75
2023/09/15 11:43:23;;;;;;;0.40;0.40;;;20.20;99.90;;;;;;5110432;28;20069;-75
2023/09/15 11:45:52;;;;;;;0.50;0.50;;;20.30;99.90;;;;;;5097268;28;20047;-75
2023/09/15 11:48:20;;;;;;;0.73;0.73;;;20.40;99.90;;;;;;5104139;27;20606;-75
2023/09/15 11:50:46;;;;;;;0.40;0.40;;;20.40;99.90;;;;;;5109793;28;20090;-75
2023/09/15 11:53:13;;;;;;;0.30;0.30;;;20.30;99.90;;;;;;5102650;28;20125;-75
2023/09/15 11:55:39;;;;;;;0.32;0.32;;;20.40;99.90;;;;;;5100071;28;20166;-75
2023/09/15 11:58:05;;;;;;;0.30;0.30;;;20.50;99.90;;;;;;5101223;28;20052;-75
2023/09/15 12:00:33;;;;;;;0.20;0.20;;;20.70;99.90;;;;;;5104929;28;20040;-75
2023/09/15 12:03:02;;;;;;;0.32;0.32;;;20.80;99.90;;;;;;5090174;28;20740;-75
2023/09/15 12:05:28;;;;;;;0.90;0.50;;;20.90;99.90;;;;;;5108027;28;20071;-75
2023/09/15 12:07:55;;;;;;;0.38;0.38;;;20.80;99.90;;;;;;5097495;28;20131;-75
2023/09/15 12:10:25;;;;;;;0.35;0.35;;;20.80;99.90;;;;;;5102064;28;20059;-75
2023/09/15 12:12:56;;;;;;;0.30;0.30;;;20.70;99.90;;;;;;5100242;28;20112;-75
2023/09/15 12:15:23;;;;;;;0.68;0.68;;;20.60;99.90;;;;;;5105509;28;20040;-74
2023/09/15 12:17:50;;;;;;;0.30;0.30;;;20.60;99.90;;;;;;5097314;28;20063;-75
2023/09/15 12:20:16;;;;;;;0.40;0.40;;;20.60;99.90;;;;;;5101610;28;20105;-75
2023/09/15 12:22:45;;;;;;;0.52;0.52;;;20.60;99.90;;;;;;5109406;28;20059;-75
2023/09/15 12:25:13;;;;;;;0.30;0.30;;;20.80;99.90;;;;;;5103651;28;20124;-75
2023/09/15 12:27:40;;;;;;;0.20;0.20;;;21.00;99.90;;;;;;5107712;28;20118;-75
2023/09/15 12:30:07;;;;;;;0.30;0.30;;;21.20;99.90;;;;;;5094030;28;20048;-74
2023/09/15 12:32:35;;;;;;;0.50;0.50;;;21.50;99.90;;;;;;5099884;28;20043;-75
2023/09/15 12:35:05;;;;;;;0.30;0.30;;;21.60;99.90;;;;;;5102258;28;20087;-75
2023/09/15 12:37:34;;;;;;;0.30;0.30;;;21.60;99.90;;;;;;5108317;28;20054;-74
2023/09/15 12:40:00;;;;;;;0.30;0.30;;;21.70;99.90;;;;;;5104288;28;20447;-74
2023/09/15 12:42:26;;;;;;;0.52;0.52;;;21.80;99.90;;;;;;5103734;28;20055;-74
2023/09/15 12:44:52;;;;;;;0.30;0.30;;;21.90;99.90;;;;;;5103707;28;20181;-74
2023/09/15 12:47:17;;;;;;;0.15;0.15;;;22.00;99.90;;;;;;5105533;27;20131;-73
2023/09/15 12:49:44;;;;;;;0.40;0.40;;;22.10;99.90;;;;;;5106281;28;20059;-75
2023/09/15 12:52:14;;;;;;;0.20;0.20;;;22.30;99.90;;;;;;5095909;28;20206;-75
2023/09/15 12:54:40;;;;;;;0.20;0.20;;;22.40;99.90;;;;;;5100555;28;20729;-74